Time;durP1;ratioP1;P1;durP2;ratioP2;P2;SDS_P1;SDS_P2;PMS_P1;PMS_P2;Temp;Humidity;BMP_temperature;BMP_pressure;BME280_temperature;BME280_humidity;BME280_pressure;Samples;Min_cycle;Max_cycle;Signal;HPM_P1;HPM_P2
2022/09/24 00:01:11;;;;;;;7.65;5.03;;;;;;;12.87;52.96;92634.53;2071144;69;20171;-74
2022/09/24 00:03:39;;;;;;;8.57;4.63;;;;;;;12.76;53.36;92640.28;2071182;69;20144;-73
2022/09/24 00:06:06;;;;;;;7.38;3.78;;;;;;;12.83;51.96;92630.75;2071216;69;20192;-73
2022/09/24 00:08:32;;;;;;;8.10;3.83;;;;;;;12.38;54.76;92631.28;2071110;69;20164;-74
2022/09/24 00:11:02;;;;;;;6.35;3.60;;;;;;;12.70;52.33;92638.63;2071072;69;20168;-74
2022/09/24 00:13:28;;;;;;;6.07;3.65;;;;;;;12.67;53.54;92631.38;2071203;69;20656;-74
2022/09/24 00:15:53;;;;;;;5.32;3.80;;;;;;;12.65;53.36;92616.44;2071167;69;20146;-75
2022/09/24 00:18:20;;;;;;;9.45;4.03;;;;;;;12.63;53.88;92616.31;2071089;69;20156;-75
2022/09/24 00:20:46;;;;;;;6.90;3.90;;;;;;;12.62;53.74;92618.41;2070880;69;20141;-75
2022/09/24 00:23:12;;;;;;;5.78;3.90;;;;;;;12.59;54.25;92628.13;2067962;69;20136;-75
2022/09/24 00:28:30;;;;;;;4.32;3.10;;;;;;;12.70;51.53;92632.97;2071375;69;20152;-74
2022/09/24 00:30:58;;;;;;;8.80;3.88;;;;;;;12.58;51.05;92628.78;2067885;69;20155;-74
2022/09/24 00:33:27;;;;;;;5.78;3.30;;;;;;;12.75;49.88;92636.00;2071127;69;20579;-74
2022/09/24 00:35:57;;;;;;;4.60;3.50;;;;;;;12.78;50.03;92631.91;2071096;69;20163;-75
2022/09/24 00:38:24;;;;;;;5.15;3.35;;;;;;;12.75;50.28;92627.53;2071314;69;20148;-74
2022/09/24 00:40:49;;;;;;;5.45;3.17;;;;;;;12.82;50.35;92623.66;2070870;69;20155;-75
2022/09/24 00:43:33;;;;;;;7.38;3.58;;;;;;;12.67;51.48;92627.84;2070577;69;20263;-74
2022/09/24 00:46:14;;;;;;;4.88;3.33;;;;;;;12.16;54.66;92628.00;2068996;69;20238;-75
2022/09/24 00:48:42;;;;;;;6.85;3.28;;;;;;;12.48;53.56;92631.06;2067957;69;20555;-75
2022/09/24 00:51:12;;;;;;;6.05;3.25;;;;;;;12.57;52.14;92630.88;2067103;69;20141;-75
2022/09/24 00:53:39;;;;;;;7.13;3.70;;;;;;;12.34;54.32;92616.94;2067801;69;20236;-74
2022/09/24 00:56:10;;;;;;;7.10;3.90;;;;;;;12.43;54.80;92624.47;2066599;69;20223;-74
2022/09/24 00:58:36;;;;;;;5.10;3.15;;;;;;;12.59;52.44;92619.66;2066325;69;20664;-74
2022/09/24 01:01:06;;;;;;;5.30;3.33;;;;;;;12.52;54.16;92626.38;2064671;69;20745;-75
2022/09/24 01:03:39;;;;;;;4.43;3.35;;;;;;;12.46;53.94;92621.16;2058972;69;20644;-74
2022/09/24 01:06:07;;;;;;;4.85;3.17;;;;;;;12.48;53.65;92623.34;2066939;69;20184;-75
2022/09/24 01:08:32;;;;;;;5.60;3.63;;;;;;;12.34;54.40;92626.13;2065942;69;20520;-75
2022/09/24 01:11:20;;;;;;;5.22;3.40;;;;;;;12.47;54.09;92627.53;2069595;69;20176;-75
2022/09/24 01:14:31;;;;;;;5.88;3.88;;;;;;;12.45;54.23;92616.09;2068029;69;20203;-75
2022/09/24 01:17:22;;;;;;;5.25;3.45;;;;;;;12.32;54.85;92614.00;2052081;69;20213;-76
2022/09/24 01:20:45;;;;;;;5.43;3.67;;;;;;;12.28;54.68;92610.97;2067208;69;20343;-75
2022/09/24 01:23:14;;;;;;;6.07;3.25;;;;;;;12.15;54.60;92598.31;2070217;69;20593;-75
2022/09/24 01:25:57;;;;;;;5.00;2.92;;;;;;;12.19;55.23;92604.19;2067244;69;20297;-76
2022/09/24 01:28:28;;;;;;;5.45;3.33;;;;;;;12.24;54.73;92594.56;2070782;69;20144;-75
2022/09/24 01:30:59;;;;;;;4.75;3.40;;;;;;;12.25;54.54;92589.66;2071424;69;20128;-74
2022/09/24 01:33:30;;;;;;;5.40;3.00;;;;;;;12.17;54.39;92579.38;2067994;69;20188;-74
2022/09/24 01:36:05;;;;;;;4.95;3.20;;;;;;;12.14;55.02;92582.72;2067837;69;20503;-75
2022/09/24 01:38:36;;;;;;;;;;;;;;;12.15;54.62;92578.56;2068086;69;20148;-75
2022/09/24 01:41:03;;;;;;;7.30;3.58;;;;;;;11.65;57.30;92580.09;2070287;69;20404;-75
2022/09/24 01:43:29;;;;;;;6.93;3.42;;;;;;;11.97;55.06;92574.75;2067100;69;20201;-75
2022/09/24 01:45:59;;;;;;;5.45;3.53;;;;;;;11.89;55.92;92572.22;2066660;69;20349;-74
2022/09/24 01:48:26;;;;;;;5.57;3.45;;;;;;;11.88;55.83;92573.59;2070664;69;20176;-74
2022/09/24 01:50:57;;;;;;;5.15;3.40;;;;;;;11.91;56.07;92569.50;2071302;69;20172;-74
2022/09/24 01:53:29;;;;;;;6.22;3.40;;;;;;;11.89;55.62;92569.41;2067689;69;21175;-74
2022/09/24 01:56:04;;;;;;;6.90;3.67;;;;;;;11.93;54.61;92570.34;2069961;69;20231;-76
2022/09/24 01:58:39;;;;;;;5.78;3.40;;;;;;;11.83;55.36;92571.91;2070251;69;20279;-76
2022/09/24 02:01:11;;;;;;;6.10;3.30;;;;;;;11.74;56.17;92565.06;2067539;69;20206;-75
2022/09/24 02:03:42;;;;;;;8.88;3.58;;;;;;;11.65;56.32;92557.53;2071164;69;20139;-75
2022/09/24 02:06:20;;;;;;;7.03;3.33;;;;;;;11.60;56.83;92553.75;2070507;69;20152;-74
2022/09/24 02:08:48;;;;;;;5.00;3.35;;;;;;;11.54;56.64;92544.22;2070872;69;20176;-75
2022/09/24 02:11:21;;;;;;;8.55;3.40;;;;;;;11.60;55.92;92541.75;2071012;69;20160;-74
2022/09/24 02:14:11;;;;;;;6.85;3.40;;;;;;;11.57;55.92;92528.88;2071250;69;20223;-75
2022/09/24 02:16:47;;;;;;;5.93;3.80;;;;;;;11.62;55.35;92533.38;2070965;69;20159;-76
2022/09/24 02:19:18;;;;;;;6.00;3.58;;;;;;;11.22;58.93;92535.44;2067891;69;20161;-75
2022/09/24 02:21:46;;;;;;;5.72;3.30;;;;;;;11.48;56.44;92526.97;2067766;69;20159;-75
2022/09/24 02:24:19;;;;;;;6.28;3.60;;;;;;;11.10;59.34;92531.97;2067993;69;20191;-75
2022/09/24 02:26:46;;;;;;;6.47;3.53;;;;;;;11.03;58.25;92547.75;2066603;69;20149;-75
2022/09/24 02:29:13;;;;;;;6.18;3.58;;;;;;;11.44;55.97;92559.22;2068077;69;20175;-75
2022/09/24 02:31:46;;;;;;;5.60;3.38;;;;;;;11.35;56.63;92546.03;2071014;69;20139;-75
2022/09/24 02:34:20;;;;;;;4.53;2.92;;;;;;;11.51;53.33;92551.84;2070493;69;20183;-75
2022/09/24 02:36:48;;;;;;;4.45;3.35;;;;;;;11.26;57.14;92557.47;2070272;69;20133;-75
2022/09/24 02:39:16;;;;;;;6.60;3.30;;;;;;;11.14;57.26;92549.09;2070197;69;20215;-75
2022/09/24 02:41:48;;;;;;;7.28;3.83;;;;;;;10.78;58.70;92550.56;2067772;69;20238;-76
2022/09/24 02:44:15;;;;;;;5.97;3.27;;;;;;;11.03;57.94;92553.41;2068658;69;20561;-75
2022/09/24 02:46:41;;;;;;;6.15;3.42;;;;;;;10.97;58.04;92547.44;2067519;69;20132;-75
2022/09/24 02:49:09;;;;;;;5.95;3.25;;;;;;;10.92;58.23;92543.66;2067292;69;20204;-75
2022/09/24 02:51:35;;;;;;;5.38;3.35;;;;;;;11.01;57.94;92555.38;2067710;69;20191;-75
2022/09/24 02:54:01;;;;;;;7.53;3.67;;;;;;;10.96;58.18;92551.59;2067733;69;20148;-75
2022/09/24 02:56:27;;;;;;;6.38;3.63;;;;;;;11.00;57.27;92562.38;2067673;69;20137;-75
2022/09/24 02:58:53;;;;;;;7.50;3.80;;;;;;;10.94;57.57;92557.09;2067756;69;20137;-75
2022/09/24 03:01:19;;;;;;;5.55;3.40;;;;;;;11.27;54.61;92554.06;2068096;69;20571;-75
2022/09/24 03:03:44;;;;;;;6.43;3.47;;;;;;;11.04;57.68;92546.44;2068396;69;20152;-74
2022/09/24 03:06:12;;;;;;;5.28;3.35;;;;;;;11.07;56.90;92541.63;2068216;69;20136;-75
2022/09/24 03:08:39;;;;;;;5.45;3.15;;;;;;;10.97;56.82;92549.53;2068269;69;20243;-75
2022/09/24 03:11:04;;;;;;;4.85;3.25;;;;;;;11.20;54.75;92541.69;2068128;69;20235;-74
2022/09/24 03:13:30;;;;;;;4.40;3.00;;;;;;;11.31;54.47;92545.06;2068234;69;20483;-74
2022/09/24 03:15:55;;;;;;;4.82;3.10;;;;;;;11.20;54.23;92547.34;2068296;69;20164;-74
2022/09/24 03:18:21;;;;;;;5.18;3.00;;;;;;;11.14;55.58;92557.53;2068113;69;20152;-75
2022/09/24 03:20:58;;;;;;;4.22;3.03;;;;;;;11.08;57.13;92546.63;2068435;69;20595;-74
2022/09/24 03:23:24;;;;;;;6.38;3.30;;;;;;;11.00;56.83;92546.22;2068219;69;20157;-75
2022/09/24 03:25:50;;;;;;;5.88;3.42;;;;;;;10.97;57.03;92541.06;2068122;69;20164;-75
2022/09/24 03:28:16;;;;;;;6.60;3.40;;;;;;;11.19;55.72;92540.25;2068297;69;20590;-75
2022/09/24 03:31:17;;;;;;;3.97;2.67;;;;;;;11.33;54.63;92548.75;2068328;69;20607;-75
2022/09/24 03:33:44;;;;;;;6.25;3.10;;;;;;;11.32;53.49;92541.66;2067749;69;20508;-75
2022/09/24 03:36:23;;;;;;;8.95;3.38;;;;;;;11.43;52.73;92537.31;2064914;69;20245;-74
2022/09/24 03:38:57;;;;;;;4.10;3.10;;;;;;;11.47;52.55;92529.06;2068224;69;20544;-74
2022/09/24 03:41:26;;;;;;;4.60;3.03;;;;;;;11.24;53.64;92534.84;2068158;69;20149;-74
2022/09/24 03:43:51;;;;;;;4.50;3.03;;;;;;;11.37;52.79;92522.88;2068187;69;20597;-74
2022/09/24 03:46:18;;;;;;;4.75;2.80;;;;;;;11.33;52.96;92514.19;2068166;69;20149;-74
2022/09/24 03:48:46;;;;;;;4.53;3.13;;;;;;;11.46;52.86;92507.88;2068287;69;20151;-75
2022/09/24 03:51:14;;;;;;;4.72;3.10;;;;;;;11.50;52.20;92501.72;2068268;69;20152;-75
2022/09/24 03:53:40;;;;;;;3.13;2.70;;;;;;;11.50;52.57;92496.81;2068322;69;20583;-74
2022/09/24 03:56:07;;;;;;;3.83;2.80;;;;;;;11.38;52.54;92504.63;2068116;69;20141;-75
2022/09/24 03:58:36;;;;;;;3.70;2.60;;;;;;;11.51;52.52;92500.38;2068192;69;20591;-74
2022/09/24 04:01:02;;;;;;;7.15;3.88;;;;;;;11.49;52.79;92486.16;2068120;69;20226;-74
2022/09/24 04:03:27;;;;;;;7.65;3.95;;;;;;;11.55;51.97;92481.59;2068435;69;20156;-74
2022/09/24 04:05:53;;;;;;;10.45;3.85;;;;;;;11.55;52.71;92486.50;2068231;69;20228;-74
2022/09/24 04:08:20;;;;;;;4.93;3.30;;;;;;;11.57;51.78;92478.88;2068313;69;20137;-75
2022/09/24 04:10:49;;;;;;;6.15;5.05;;;;;;;11.56;52.31;92476.69;2068155;69;20251;-75
2022/09/24 04:13:16;;;;;;;5.43;3.88;;;;;;;11.63;51.47;92464.34;2062074;69;20152;-75
2022/09/24 04:15:42;;;;;;;4.20;3.28;;;;;;;11.49;51.90;92469.25;2068262;69;20149;-74
2022/09/24 04:18:08;;;;;;;7.70;3.10;;;;;;;11.51;54.10;92469.38;2068257;69;20592;-74
2022/09/24 04:20:34;;;;;;;3.85;2.75;;;;;;;11.65;51.83;92465.22;2068215;69;20137;-74
2022/09/24 04:23:00;;;;;;;3.95;2.97;;;;;;;11.56;52.31;92471.03;2068149;69;20221;-75
2022/09/24 04:25:29;;;;;;;3.08;2.58;;;;;;;11.56;53.42;92477.41;2068066;69;20168;-74
2022/09/24 04:27:57;;;;;;;5.00;2.95;;;;;;;11.20;54.24;92488.16;2068154;69;20162;-75
2022/09/24 04:30:24;;;;;;;3.92;2.75;;;;;;;11.50;52.97;92485.56;2068306;69;20152;-75
2022/09/24 04:32:50;;;;;;;5.00;3.38;;;;;;;11.34;53.97;92490.28;2068154;69;20193;-74
2022/09/24 04:35:21;;;;;;;5.38;3.33;;;;;;;11.35;54.60;92475.56;2068226;69;20187;-75
2022/09/24 04:37:47;;;;;;;6.10;3.47;;;;;;;11.25;54.44;92465.84;2068252;69;20147;-74
2022/09/24 04:40:15;;;;;;;6.18;3.38;;;;;;;11.19;55.70;92466.25;2068104;69;20140;-75
2022/09/24 04:42:43;;;;;;;5.80;3.55;;;;;;;11.08;56.57;92462.13;2068061;69;20302;-74
2022/09/24 04:45:12;;;;;;;5.03;3.50;;;;;;;11.13;56.16;92460.28;2068275;69;20231;-74
2022/09/24 04:47:39;;;;;;;6.15;3.28;;;;;;;11.10;55.84;92465.06;2068077;69;20144;-75
2022/09/24 04:50:07;;;;;;;7.68;3.60;;;;;;;11.12;55.66;92470.81;2068103;69;20148;-75
2022/09/24 04:52:33;;;;;;;8.60;5.60;;;;;;;11.05;56.38;92474.66;2068196;69;20156;-74
2022/09/24 04:54:59;;;;;;;15.25;9.93;;;;;;;11.16;55.39;92476.66;2064707;69;20141;-75
2022/09/24 04:57:27;;;;;;;12.00;7.43;;;;;;;11.09;55.90;92479.78;2064602;69;20264;-75
2022/09/24 04:59:53;;;;;;;10.18;6.05;;;;;;;11.03;56.29;92468.91;2068114;69;20188;-75
2022/09/24 05:02:19;;;;;;;10.55;6.43;;;;;;;11.11;54.94;92460.91;2068195;69;20156;-75
2022/09/24 05:04:44;;;;;;;9.45;7.70;;;;;;;11.30;53.80;92456.25;2068022;69;20145;-75
2022/09/24 05:07:10;;;;;;;9.90;7.68;;;;;;;11.10;55.90;92455.91;2068023;69;20136;-75
2022/09/24 05:09:36;;;;;;;15.70;9.43;;;;;;;11.08;57.11;92462.13;2068033;69;20227;-75
2022/09/24 05:12:02;;;;;;;18.88;13.15;;;;;;;11.03;57.14;92454.09;2067909;69;20224;-75
2022/09/24 05:14:29;;;;;;;12.52;8.18;;;;;;;11.05;56.04;92459.84;2064701;69;20164;-75
2022/09/24 05:16:55;;;;;;;9.70;6.65;;;;;;;11.05;56.59;92466.22;2068167;69;20243;-75
2022/09/24 05:19:21;;;;;;;10.85;6.00;;;;;;;11.07;56.71;92465.56;2068046;69;20172;-75
2022/09/24 05:21:47;;;;;;;9.48;5.30;;;;;;;11.05;57.47;92468.28;2067961;69;20141;-75
2022/09/24 05:24:13;;;;;;;7.53;5.40;;;;;;;10.98;57.67;92472.84;2067947;69;20559;-75
2022/09/24 05:29:24;;;;;;;8.57;6.72;;;;;;;10.96;57.50;92472.00;2068002;69;20287;-75
2022/09/24 05:31:49;;;;;;;11.32;6.68;;;;;;;10.81;58.23;92473.28;2064631;69;20252;-75
2022/09/24 05:34:15;;;;;;;10.20;5.07;;;;;;;11.04;56.69;92473.19;2067982;69;20224;-75
2022/09/24 05:36:44;;;;;;;11.23;4.47;;;;;;;10.55;60.82;92489.44;2067995;69;20163;-75
2022/09/24 05:39:11;;;;;;;5.82;4.28;;;;;;;10.43;61.18;92487.38;2068122;69;20137;-75
2022/09/24 05:41:39;;;;;;;8.00;4.18;;;;;;;10.89;57.50;92487.81;2068147;69;20144;-75
2022/09/24 05:44:05;;;;;;;6.45;4.57;;;;;;;10.94;58.06;92487.44;2067973;69;20236;-75
2022/09/24 05:46:31;;;;;;;9.02;5.80;;;;;;;11.04;58.30;92486.53;2068128;69;20136;-75
2022/09/24 05:48:57;;;;;;;12.85;6.03;;;;;;;10.98;58.35;92492.56;2068044;69;20271;-75
2022/09/24 05:51:23;;;;;;;20.25;10.60;;;;;;;11.01;58.55;92490.59;2068114;69;20243;-75
2022/09/24 05:53:49;;;;;;;28.95;13.20;;;;;;;11.17;56.95;92500.66;2068006;69;20592;-75
2022/09/24 05:56:15;;;;;;;44.40;20.67;;;;;;;11.29;54.81;92492.16;2067887;69;20148;-75
2022/09/24 05:58:47;;;;;;;26.73;12.90;;;;;;;11.27;57.07;92491.31;2067882;69;20152;-75
2022/09/24 06:01:12;;;;;;;14.35;8.43;;;;;;;11.20;57.90;92507.88;2067990;69;20139;-74
2022/09/24 06:03:38;;;;;;;21.30;11.63;;;;;;;11.32;56.59;92499.38;2068045;69;20492;-75
2022/09/24 06:06:07;;;;;;;24.95;12.10;;;;;;;11.45;56.98;92493.06;2067967;69;20141;-75
2022/09/24 06:08:33;;;;;;;25.08;14.00;;;;;;;11.37;57.29;92486.97;2068014;69;20155;-75
2022/09/24 06:10:59;;;;;;;22.95;15.43;;;;;;;11.49;56.86;92486.16;2067885;69;20137;-75
2022/09/24 06:13:25;;;;;;;28.15;16.20;;;;;;;11.60;57.43;92491.00;2067945;69;20168;-75
2022/09/24 06:15:51;;;;;;;24.05;15.77;;;;;;;11.63;57.29;92484.81;2067833;69;20155;-75
2022/09/24 06:18:17;;;;;;;23.00;14.95;;;;;;;11.63;57.18;92482.00;2064592;69;20152;-75
2022/09/24 06:20:43;;;;;;;20.58;13.95;;;;;;;11.78;55.46;92477.88;2067976;69;20157;-75
2022/09/24 06:23:09;;;;;;;18.58;11.98;;;;;;;11.84;55.83;92474.66;2067961;69;20282;-75
2022/09/24 06:25:34;;;;;;;21.58;11.02;;;;;;;11.98;55.30;92478.22;2067843;69;20556;-74
2022/09/24 06:28:02;;;;;;;23.52;12.68;;;;;;;11.90;56.61;92484.16;2067901;69;20519;-73
2022/09/24 06:30:32;;;;;;;24.17;12.98;;;;;;;12.02;55.90;92484.06;2067894;69;20156;-74
2022/09/24 06:33:04;;;;;;;55.33;26.73;;;;;;;11.97;56.81;92476.03;2067856;69;20508;-75
2022/09/24 06:35:33;;;;;;;96.97;46.03;;;;;;;12.07;55.60;92485.75;2067745;69;20132;-75
2022/09/24 06:37:58;;;;;;;80.15;37.38;;;;;;;12.09;56.26;92488.66;2068018;69;20209;-75
2022/09/24 06:40:25;;;;;;;34.30;18.90;;;;;;;12.01;57.83;92502.38;2067885;69;20550;-74
2022/09/24 06:42:52;;;;;;;17.13;8.35;;;;;;;11.90;59.08;92497.53;2067870;69;20569;-75
2022/09/24 06:45:19;;;;;;;23.35;11.15;;;;;;;12.27;54.47;92493.78;2067885;69;20208;-75
2022/09/24 06:47:57;;;;;;;21.52;12.63;;;;;;;12.58;54.34;92496.06;2067867;69;20148;-75
2022/09/24 06:50:25;;;;;;;23.98;11.73;;;;;;;12.62;55.20;92493.44;2067940;69;20148;-73
2022/09/24 06:52:50;;;;;;;11.65;7.47;;;;;;;12.01;58.81;92493.16;2067873;69;20148;-75
2022/09/24 06:55:17;;;;;;;14.27;7.68;;;;;;;12.38;57.16;92498.59;2067826;69;20160;-74
2022/09/24 06:57:46;;;;;;;12.30;7.22;;;;;;;12.59;56.10;92497.50;2067885;69;20228;-75
2022/09/24 07:00:13;;;;;;;15.60;7.70;;;;;;;12.70;54.52;92500.22;2067867;69;20133;-74
2022/09/24 07:02:41;;;;;;;18.85;7.15;;;;;;;12.80;54.04;92504.91;2067757;69;20147;-74
2022/09/24 07:05:08;;;;;;;13.80;6.57;;;;;;;12.71;56.32;92503.78;2067815;69;20184;-73
2022/09/24 07:07:35;;;;;;;8.90;5.63;;;;;;;12.92;54.42;92502.66;2067793;69;20152;-73
2022/09/24 07:10:03;;;;;;;10.55;6.47;;;;;;;13.09;54.78;92499.28;2067750;69;20670;-74
2022/09/24 07:12:31;;;;;;;12.85;6.80;;;;;;;13.15;54.27;92504.50;2067779;69;20136;-74
2022/09/24 07:14:57;;;;;;;13.52;8.30;;;;;;;13.22;51.39;92506.28;2067862;69;20302;-74
2022/09/24 07:17:24;;;;;;;13.45;8.07;;;;;;;13.37;53.11;92514.06;2067769;69;20312;-74
2022/09/24 07:19:50;;;;;;;11.18;6.10;;;;;;;12.75;57.83;92520.19;2067745;69;20152;-74
2022/09/24 07:22:16;;;;;;;7.88;5.00;;;;;;;12.98;54.25;92512.19;2067714;69;20639;-73
2022/09/24 07:24:42;;;;;;;7.82;5.07;;;;;;;13.30;53.48;92514.41;2067740;69;20236;-73
2022/09/24 07:27:07;;;;;;;7.93;5.25;;;;;;;13.39;54.25;92517.00;2067653;69;20176;-74
2022/09/24 07:29:34;;;;;;;8.10;5.85;;;;;;;13.52;53.73;92515.47;2067734;69;20270;-74
2022/09/24 07:32:00;;;;;;;9.98;5.40;;;;;;;13.40;54.17;92512.06;2067722;69;20153;-73
2022/09/24 07:34:26;;;;;;;10.35;6.20;;;;;;;13.48;52.46;92504.69;2067138;69;20187;-73
2022/09/24 07:36:51;;;;;;;9.85;7.22;;;;;;;13.73;52.42;92506.56;2067753;69;20136;-74
2022/09/24 07:39:19;;;;;;;11.07;6.88;;;;;;;13.79;54.13;92505.38;2067738;69;20188;-75
2022/09/24 07:41:44;;;;;;;11.82;7.05;;;;;;;13.80;53.56;92501.91;2070934;69;20155;-74
2022/09/24 07:44:10;;;;;;;13.63;7.25;;;;;;;13.96;50.88;92493.41;2070963;69;20136;-73
2022/09/24 07:46:36;;;;;;;11.52;7.10;;;;;;;13.95;50.64;92484.19;2067842;69;20148;-74
2022/09/24 07:49:02;;;;;;;17.15;7.75;;;;;;;13.81;51.32;92475.06;2071583;69;20140;-74
2022/09/24 07:51:28;;;;;;;9.20;5.10;;;;;;;13.34;52.05;92458.06;2071634;69;20147;-74
2022/09/24 07:53:57;;;;;;;8.13;3.90;;;;;;;13.60;50.31;92450.06;2071516;69;20133;-74
2022/09/24 07:56:23;;;;;;;10.48;4.40;;;;;;;14.06;49.04;92456.34;2071485;69;20144;-74
2022/09/24 07:58:50;;;;;;;7.45;4.50;;;;;;;14.10;49.09;92462.91;2071468;69;20610;-74
2022/09/24 08:01:17;;;;;;;7.43;5.35;;;;;;;14.09;51.04;92469.22;2071486;69;20207;-74
2022/09/24 08:03:43;;;;;;;10.77;6.20;;;;;;;13.92;53.14;92476.25;2071548;69;20159;-74
2022/09/24 08:06:09;;;;;;;13.40;5.80;;;;;;;14.41;50.44;92481.22;2071468;69;20526;-74
2022/09/24 08:08:35;;;;;;;7.78;5.07;;;;;;;14.67;49.74;92479.56;2071461;69;20144;-74
2022/09/24 08:11:05;;;;;;;8.70;4.40;;;;;;;14.79;51.00;92479.31;2071435;69;20158;-74
2022/09/24 08:13:31;;;;;;;5.97;3.92;;;;;;;14.95;49.78;92479.28;2071670;69;20183;-74
2022/09/24 08:16:00;;;;;;;7.85;4.78;;;;;;;14.88;49.68;92478.28;2071471;69;20148;-74
2022/09/24 08:18:27;;;;;;;9.30;5.80;;;;;;;14.04;52.98;92478.91;2068123;69;20139;-75
2022/09/24 08:20:53;;;;;;;7.85;5.13;;;;;;;14.16;52.75;92483.00;2065348;69;20571;-74
2022/09/24 08:23:19;;;;;;;8.35;5.35;;;;;;;14.40;52.32;92483.34;2068237;69;20244;-74
2022/09/24 08:25:46;;;;;;;7.95;4.53;;;;;;;14.87;50.21;92484.59;2071479;69;20239;-74
2022/09/24 08:28:15;;;;;;;7.78;4.50;;;;;;;14.95;49.96;92485.69;2071466;69;20221;-74
2022/09/24 08:30:42;;;;;;;7.47;4.32;;;;;;;15.19;49.13;92479.53;2071400;69;20151;-74
2022/09/24 08:33:08;;;;;;;5.43;4.05;;;;;;;15.39;49.60;92474.66;2071415;69;20222;-74
2022/09/24 08:35:34;;;;;;;5.80;3.70;;;;;;;15.54;49.53;92484.47;2071423;69;20235;-74
2022/09/24 08:38:00;;;;;;;6.32;3.50;;;;;;;15.60;48.05;92484.69;2068083;69;20305;-75
2022/09/24 08:40:30;;;;;;;6.68;3.75;;;;;;;15.69;49.02;92483.66;2071494;69;20156;-74
2022/09/24 08:43:26;;;;;;;7.72;4.10;;;;;;;15.73;48.92;92483.09;2071356;69;20152;-74
2022/09/24 08:48:45;;;;;;;8.70;3.78;;;;;;;16.00;48.11;92467.78;2071444;69;20136;-75
2022/09/24 08:51:16;;;;;;;7.38;4.28;;;;;;;16.14;47.75;92462.63;2071636;69;20565;-75
2022/09/24 08:53:53;;;;;;;6.30;4.07;;;;;;;15.90;47.28;92462.47;2071586;69;20163;-75
2022/09/24 08:56:26;;;;;;;4.45;3.80;;;;;;;15.48;47.71;92467.91;2071354;69;20147;-75
2022/09/24 08:59:02;;;;;;;6.38;4.00;;;;;;;15.70;47.05;92473.75;2071297;69;20151;-75
2022/09/24 09:01:43;;;;;;;5.38;3.97;;;;;;;16.18;46.41;92474.13;2071514;69;20163;-74
2022/09/24 09:04:26;;;;;;;5.72;3.70;;;;;;;16.29;46.39;92469.53;2071403;69;20148;-75
2022/09/24 09:07:39;;;;;;;5.70;3.15;;;;;;;16.22;45.36;92465.75;2071408;69;20242;-74
2022/09/24 09:10:29;;;;;;;4.57;3.30;;;;;;;16.18;45.64;92464.88;2053964;69;20146;-75
2022/09/24 09:13:20;;;;;;;3.72;2.95;;;;;;;16.22;45.51;92462.19;2071513;69;20227;-74
2022/09/24 09:15:52;;;;;;;4.53;3.30;;;;;;;16.56;45.14;92464.78;2068938;69;20172;-74
2022/09/24 09:18:30;;;;;;;6.40;4.28;;;;;;;16.47;45.59;92463.78;2071297;69;20140;-74
2022/09/24 09:21:05;;;;;;;6.05;4.53;;;;;;;16.44;45.82;92460.13;2068086;69;20160;-75
2022/09/24 09:23:45;;;;;;;7.35;4.50;;;;;;;16.53;45.80;92459.03;2071354;69;20276;-74
2022/09/24 09:26:11;;;;;;;7.57;4.35;;;;;;;16.60;45.47;92445.06;2071314;69;20142;-74
2022/09/24 09:28:37;;;;;;;8.77;6.53;;;;;;;16.46;46.79;92451.69;2071377;69;20132;-74
2022/09/24 09:31:17;;;;;;;6.63;4.60;;;;;;;16.22;47.03;92454.41;2071330;69;20152;-73
2022/09/24 09:33:43;;;;;;;5.00;3.85;;;;;;;16.06;48.15;92461.59;2071361;69;20490;-76
2022/09/24 09:36:38;;;;;;;7.05;4.40;;;;;;;16.05;47.46;92460.16;2071321;69;20140;-76
2022/09/24 09:39:21;;;;;;;4.95;4.10;;;;;;;16.83;46.34;92470.03;2071374;69;20136;-74
2022/09/24 09:41:51;;;;;;;8.35;5.30;;;;;;;16.27;46.65;92461.69;2071129;69;20141;-74
2022/09/24 09:44:22;;;;;;;6.55;4.55;;;;;;;16.90;45.49;92463.16;2071016;69;20233;-74
2022/09/24 09:47:10;;;;;;;12.88;7.68;;;;;;;16.92;46.23;92457.56;2071273;69;20150;-74
2022/09/24 09:49:37;;;;;;;13.80;9.02;;;;;;;16.69;45.97;92464.56;2071296;69;20199;-74
2022/09/24 09:52:12;;;;;;;8.10;4.47;;;;;;;16.68;46.41;92465.22;2071179;69;20148;-74
2022/09/24 09:54:40;;;;;;;3.67;3.10;;;;;;;17.01;44.91;92456.44;2071172;69;20128;-74
2022/09/24 09:57:11;;;;;;;4.75;3.30;;;;;;;17.39;43.53;92455.50;2071121;69;20251;-74
2022/09/24 09:59:37;;;;;;;4.10;2.95;;;;;;;17.83;43.51;92452.59;2071276;69;20168;-74
2022/09/24 10:02:10;;;;;;;6.90;2.85;;;;;;;18.03;42.95;92453.19;2071222;69;20231;-73
2022/09/24 10:04:39;;;;;;;6.22;3.40;;;;;;;17.99;42.66;92450.94;2067899;69;20171;-73
2022/09/24 10:07:14;;;;;;;6.25;3.03;;;;;;;17.93;41.90;92438.66;2067902;69;20150;-73
2022/09/24 10:09:42;;;;;;;4.80;2.95;;;;;;;17.94;42.03;92442.97;2071350;69;20145;-73
2022/09/24 10:12:21;;;;;;;3.80;3.15;;;;;;;18.28;41.55;92443.25;2071241;69;20253;-74
2022/09/24 10:15:14;;;;;;;4.45;3.33;;;;;;;18.28;41.58;92434.69;2071321;69;20148;-74
2022/09/24 10:17:41;;;;;;;4.43;3.13;;;;;;;17.81;42.15;92430.47;2071261;69;20145;-74
2022/09/24 10:20:16;;;;;;;5.90;3.20;;;;;;;17.89;41.81;92427.88;2071333;69;20128;-74
2022/09/24 10:22:50;;;;;;;7.18;3.60;;;;;;;17.78;42.11;92426.84;2071346;69;20541;-74
2022/09/24 10:25:23;;;;;;;9.98;3.17;;;;;;;18.36;41.40;92428.47;2071187;69;20282;-74
2022/09/24 10:27:49;;;;;;;;;;;;;;;18.53;41.34;92421.81;2071553;69;20152;-74
2022/09/24 10:30:34;;;;;;;5.53;3.17;;;;;;;18.28;41.68;92426.16;2071341;69;20052;-74
2022/09/24 10:33:02;;;;;;;4.05;2.97;;;;;;;18.25;41.84;92436.75;2071135;69;20148;-74
2022/09/24 10:35:37;;;;;;;5.78;3.50;;;;;;;17.85;43.62;92432.72;2071218;69;20209;-73
2022/09/24 10:38:18;;;;;;;4.00;3.38;;;;;;;18.04;44.31;92423.31;2071201;69;20602;-74
2022/09/24 10:40:45;;;;;;;8.68;3.55;;;;;;;17.86;44.42;92417.81;2071220;69;20164;-75
2022/09/24 10:43:19;;;;;;;3.90;3.20;;;;;;;18.10;43.74;92409.25;2071247;69;20163;-75
2022/09/24 10:46:00;;;;;;;6.50;3.40;;;;;;;18.42;42.80;92411.56;2071224;69;20156;-74
2022/09/24 10:48:36;;;;;;;4.30;3.38;;;;;;;17.94;44.33;92406.66;2071231;69;20162;-75
2022/09/24 10:51:19;;;;;;;3.88;3.22;;;;;;;18.36;42.79;92412.09;2071154;69;20156;-74
2022/09/24 10:54:17;;;;;;;4.50;3.00;;;;;;;18.66;43.70;92408.63;2071232;69;20507;-75
2022/09/24 10:56:50;;;;;;;4.95;3.28;;;;;;;17.96;41.84;92415.28;2071152;69;20151;-74
2022/09/24 10:59:36;;;;;;;4.18;3.05;;;;;;;18.34;42.06;92414.19;2071234;69;20658;-75
2022/09/24 11:02:30;;;;;;;4.03;3.03;;;;;;;18.40;41.95;92417.19;2071266;69;20159;-74
2022/09/24 11:05:17;;;;;;;9.02;4.25;;;;;;;18.19;43.44;92415.91;2071175;69;20167;-74
2022/09/24 11:08:34;;;;;;;7.93;4.40;;;;;;;18.29;43.79;92404.78;2071234;69;20198;-74
2022/09/24 11:11:16;;;;;;;7.80;3.60;;;;;;;18.77;42.32;92407.50;2053533;69;20240;-74
2022/09/24 11:14:30;;;;;;;5.93;3.75;;;;;;;19.00;42.63;92400.97;2066098;69;20140;-73
2022/09/24 11:17:07;;;;;;;9.43;4.18;;;;;;;18.63;43.62;92399.28;2071268;69;20179;-75
2022/09/24 11:19:44;;;;;;;7.85;4.60;;;;;;;18.58;42.98;92394.16;2071081;69;20588;-74
2022/09/24 11:22:20;;;;;;;5.78;3.88;;;;;;;18.61;42.40;92395.66;2071456;69;20507;-74
2022/09/24 11:24:52;;;;;;;5.80;4.10;;;;;;;18.49;43.51;92393.94;2071714;69;20175;-74
2022/09/24 11:27:41;;;;;;;4.55;3.72;;;;;;;18.44;43.96;92394.50;2068164;69;20148;-74
2022/09/24 11:30:13;;;;;;;4.68;3.88;;;;;;;18.61;43.87;92396.41;2069372;69;20640;-75
2022/09/24 11:33:11;;;;;;;8.57;4.30;;;;;;;18.89;43.80;92395.69;2071673;69;20158;-76
2022/09/24 11:36:28;;;;;;;7.22;3.88;;;;;;;18.87;43.47;92389.94;2071672;69;20168;-76
2022/09/24 11:39:35;;;;;;;5.80;3.72;;;;;;;18.63;43.27;92381.47;2061970;69;20631;-75
2022/09/24 11:42:15;;;;;;;4.20;3.40;;;;;;;18.76;43.09;92377.56;2071417;69;20213;-74
2022/09/24 11:45:11;;;;;;;4.63;3.53;;;;;;;18.82;44.48;92379.81;2071612;69;20137;-75
2022/09/24 11:48:06;;;;;;;4.80;3.30;;;;;;;18.65;43.11;92367.28;2068194;69;20140;-75
2022/09/24 11:50:41;;;;;;;6.00;3.60;;;;;;;18.57;43.14;92376.34;2071491;69;20159;-76
2022/09/24 11:53:32;;;;;;;4.22;3.50;;;;;;;18.64;43.22;92377.19;2071608;69;20167;-75
2022/09/24 11:56:04;;;;;;;9.02;3.95;;;;;;;18.46;43.95;92380.28;2071520;69;20156;-76
2022/09/24 11:58:41;;;;;;;7.30;4.10;;;;;;;18.15;43.70;92378.78;2071513;69;20152;-76
2022/09/24 12:01:16;;;;;;;7.28;4.20;;;;;;;17.80;44.58;92386.31;2068124;69;20527;-75